createdAt,value
2023-01-29T00:00:31.601Z,-0.70
2023-01-29T00:03:00.528Z,-0.70
2023-01-29T00:05:29.557Z,-0.60
2023-01-29T00:08:00.040Z,-0.60
2023-01-29T00:10:29.202Z,-0.60
2023-01-29T00:12:58.179Z,-0.60
2023-01-29T00:15:27.159Z,-0.60
2023-01-29T00:17:56.199Z,-0.50
2023-01-29T00:20:25.242Z,-0.50
2023-01-29T00:22:54.202Z,-0.50
2023-01-29T00:25:24.649Z,-0.50
2023-01-29T00:27:53.750Z,-0.50
2023-01-29T00:30:23.081Z,-0.50
2023-01-29T00:32:52.112Z,-0.50
2023-01-29T00:35:21.011Z,-0.50
2023-01-29T00:37:49.936Z,-0.50
2023-01-29T00:40:19.526Z,-0.50
2023-01-29T00:43:07.678Z,-0.50
2023-01-29T00:45:37.472Z,-0.40
2023-01-29T00:48:07.191Z,-0.40
2023-01-29T00:50:36.338Z,-0.40
2023-01-29T00:53:05.317Z,-0.40
2023-01-29T00:55:34.277Z,-0.40
2023-01-29T00:58:04.556Z,-0.40
2023-01-29T01:00:33.544Z,-0.50
2023-01-29T01:03:07.660Z,-0.50
2023-01-29T01:05:37.256Z,-0.50
2023-01-29T01:08:27.119Z,-0.50
2023-01-29T01:11:01.143Z,-0.50
2023-01-29T01:13:33.360Z,-0.40
2023-01-29T01:16:02.594Z,-0.40
2023-01-29T01:18:32.631Z,-0.40
2023-01-29T01:21:01.716Z,-0.40
2023-01-29T01:23:30.743Z,-0.50
2023-01-29T01:25:59.750Z,-0.50
2023-01-29T01:28:29.676Z,-0.50
2023-01-29T01:31:00.092Z,-0.60
2023-01-29T01:33:29.353Z,-0.60
2023-01-29T01:36:02.660Z,-0.60
2023-01-29T01:38:31.718Z,-0.60
2023-01-29T01:41:00.832Z,-0.60
2023-01-29T01:43:29.825Z,-0.60
2023-01-29T01:46:00.411Z,-0.50
2023-01-29T01:48:29.812Z,-0.60
2023-01-29T01:51:03.821Z,-0.50
2023-01-29T01:53:38.886Z,-0.50
2023-01-29T01:56:12.190Z,-0.50
2023-01-29T01:58:45.288Z,-0.50
2023-01-29T02:01:15.749Z,-0.50
2023-01-29T02:04:04.719Z,-0.50
2023-01-29T02:06:51.792Z,-0.50
2023-01-29T02:09:35.998Z,-0.50
2023-01-29T02:12:07.689Z,-0.40
2023-01-29T02:14:40.618Z,-0.50
2023-01-29T02:17:14.302Z,-0.50
2023-01-29T02:19:51.756Z,-0.50
2023-01-29T02:22:48.718Z,-0.50
2023-01-29T02:25:43.097Z,-0.50
2023-01-29T02:28:41.470Z,-0.50
2023-01-29T02:31:17.641Z,-0.60
2023-01-29T02:34:01.939Z,-0.60
2023-01-29T02:36:39.908Z,-0.60
2023-01-29T02:39:18.598Z,-0.60
2023-01-29T02:41:57.825Z,-0.60
2023-01-29T02:44:37.380Z,-0.50
2023-01-29T02:47:11.173Z,-0.40
2023-01-29T02:49:47.658Z,-0.50
2023-01-29T02:52:19.736Z,-0.50
2023-01-29T02:54:55.094Z,-0.40
2023-01-29T02:57:31.631Z,-0.50
2023-01-29T03:00:08.109Z,-0.50
2023-01-29T03:02:43.210Z,-0.40
2023-01-29T03:05:21.269Z,-0.40
2023-01-29T03:07:56.678Z,-0.40
2023-01-29T03:10:31.511Z,-0.40
2023-01-29T03:13:05.831Z,-0.40
2023-01-29T03:15:42.914Z,-0.40
2023-01-29T03:18:16.989Z,-0.40
2023-01-29T03:20:51.085Z,-0.30
2023-01-29T03:23:46.465Z,-0.40
2023-01-29T03:26:34.819Z,-0.40
2023-01-29T03:29:24.047Z,-0.40
2023-01-29T03:32:07.239Z,-0.30
2023-01-29T03:34:43.973Z,-0.20
2023-01-29T03:37:20.542Z,-0.20
2023-01-29T03:39:52.263Z,-0.30
2023-01-29T03:42:25.275Z,-0.30
2023-01-29T03:45:00.656Z,-0.20
2023-01-29T03:47:44.102Z,-0.20
2023-01-29T03:50:23.174Z,-0.30
2023-01-29T03:52:58.253Z,-0.20
2023-01-29T03:55:37.040Z,-0.20
2023-01-29T03:58:14.990Z,-0.10
2023-01-29T04:00:50.987Z,-0.10
2023-01-29T04:03:24.643Z,-0.10
2023-01-29T04:06:05.859Z,-0.10
2023-01-29T04:08:40.584Z,-0.10
2023-01-29T04:11:17.276Z,-0.20
2023-01-29T04:13:50.076Z,-0.10
2023-01-29T04:16:24.197Z,0.00
2023-01-29T04:18:56.089Z,-0.10
2023-01-29T04:21:26.756Z,-0.20
2023-01-29T04:23:55.980Z,-0.20
2023-01-29T04:26:41.247Z,-0.20
2023-01-29T04:29:29.071Z,-0.10
2023-01-29T04:32:08.335Z,-0.10
2023-01-29T04:34:53.391Z,0.00
2023-01-29T04:37:31.508Z,0.00
2023-01-29T04:40:06.337Z,-0.10
2023-01-29T04:42:44.527Z,0.00
2023-01-29T04:45:22.779Z,-0.10
2023-01-29T04:48:00.242Z,-0.10
2023-01-29T04:50:35.957Z,0.00
2023-01-29T04:53:12.529Z,0.00
2023-01-29T04:55:51.352Z,0.00
2023-01-29T04:58:27.588Z,0.00
2023-01-29T05:01:00.156Z,0.00
2023-01-29T05:03:30.155Z,0.00
2023-01-29T05:06:06.143Z,0.10
2023-01-29T05:08:37.950Z,0.10
2023-01-29T05:11:07.668Z,0.10
2023-01-29T05:13:40.393Z,0.00
2023-01-29T05:16:19.090Z,0.00
2023-01-29T05:18:48.835Z,0.00
2023-01-29T05:21:19.968Z,0.00
2023-01-29T05:23:59.796Z,0.10
2023-01-29T05:26:46.888Z,0.10
2023-01-29T05:29:16.008Z,0.00
2023-01-29T05:31:47.808Z,0.00
2023-01-29T05:34:18.513Z,0.00
2023-01-29T05:36:49.201Z,-0.10
2023-01-29T05:39:18.838Z,0.00
2023-01-29T05:41:47.956Z,-0.10
2023-01-29T05:44:17.025Z,0.00
2023-01-29T05:46:48.595Z,-0.10
2023-01-29T05:49:20.925Z,0.00
2023-01-29T05:51:51.715Z,0.00
2023-01-29T05:54:21.276Z,0.00
2023-01-29T05:56:50.273Z,0.10
2023-01-29T05:59:20.258Z,0.10
2023-01-29T06:01:49.863Z,0.10
2023-01-29T06:04:19.147Z,0.20
2023-01-29T06:06:48.230Z,0.10
2023-01-29T06:09:18.792Z,0.10
2023-01-29T06:11:47.791Z,0.10
2023-01-29T06:14:17.269Z,0.10
2023-01-29T06:16:46.443Z,0.20
2023-01-29T06:19:15.655Z,0.20
2023-01-29T06:21:44.783Z,0.30
2023-01-29T06:24:13.975Z,0.20
2023-01-29T06:26:45.255Z,0.20
2023-01-29T06:29:14.640Z,0.30
2023-01-29T06:31:43.795Z,0.30
2023-01-29T06:34:12.966Z,0.30
2023-01-29T06:36:42.338Z,0.20
2023-01-29T06:39:11.763Z,0.20
2023-01-29T06:41:40.944Z,0.10
2023-01-29T06:44:11.679Z,0.10
2023-01-29T06:46:42.136Z,0.20
2023-01-29T06:49:13.615Z,0.20
2023-01-29T06:51:43.322Z,0.20
2023-01-29T06:54:13.473Z,0.30
2023-01-29T06:56:42.668Z,0.30
2023-01-29T06:59:13.874Z,0.40
2023-01-29T07:01:45.766Z,0.40
2023-01-29T07:04:15.307Z,0.40
2023-01-29T07:06:46.244Z,0.50
2023-01-29T07:09:15.697Z,0.40
2023-01-29T07:11:44.950Z,0.50
2023-01-29T07:14:15.879Z,0.50
2023-01-29T07:16:45.289Z,0.50
2023-01-29T07:19:22.120Z,0.50
2023-01-29T07:21:51.471Z,0.40
2023-01-29T07:24:20.901Z,0.50
2023-01-29T07:26:50.356Z,0.60
2023-01-29T07:29:21.079Z,0.70
2023-01-29T07:31:50.355Z,0.70
2023-01-29T07:34:25.334Z,0.60
2023-01-29T07:36:55.804Z,0.60
2023-01-29T07:39:25.054Z,0.60
2023-01-29T07:41:56.156Z,0.70
2023-01-29T07:44:27.075Z,0.70
2023-01-29T07:46:56.390Z,0.80
2023-01-29T07:49:25.634Z,0.80
2023-01-29T07:51:54.808Z,0.80
2023-01-29T07:54:24.227Z,0.90
2023-01-29T07:56:55.684Z,0.80
2023-01-29T07:59:26.313Z,0.80
2023-01-29T08:01:55.625Z,0.80
2023-01-29T08:04:24.978Z,0.90
2023-01-29T08:06:54.208Z,0.90
2023-01-29T08:09:23.314Z,0.90
2023-01-29T08:11:52.557Z,0.80
2023-01-29T08:14:21.927Z,0.80
2023-01-29T08:16:52.950Z,0.80
2023-01-29T08:19:22.058Z,0.90
2023-01-29T08:21:52.196Z,0.90
2023-01-29T08:24:21.649Z,0.80
2023-01-29T08:26:51.398Z,0.70
2023-01-29T08:29:20.607Z,0.70
2023-01-29T08:31:50.316Z,0.80
2023-01-29T08:34:20.930Z,0.80
2023-01-29T08:36:50.099Z,0.90
2023-01-29T08:39:19.250Z,1.00
2023-01-29T08:41:48.562Z,1.00
2023-01-29T08:44:17.820Z,1.10
2023-01-29T08:46:46.909Z,1.10
2023-01-29T08:49:16.231Z,1.10
2023-01-29T08:51:46.810Z,1.10
2023-01-29T08:54:18.463Z,1.10
2023-01-29T08:56:47.453Z,1.00
2023-01-29T08:59:18.311Z,1.00
2023-01-29T09:01:47.426Z,1.00
2023-01-29T09:04:16.523Z,1.00
2023-01-29T09:06:47.039Z,1.10
2023-01-29T09:09:16.197Z,1.10
2023-01-29T09:11:45.143Z,1.10
2023-01-29T09:14:15.611Z,1.20
2023-01-29T09:16:46.168Z,1.20
2023-01-29T09:19:15.341Z,1.20
2023-01-29T09:21:45.969Z,1.40
2023-01-29T09:24:15.175Z,1.40
2023-01-29T09:26:46.102Z,1.40
2023-01-29T09:29:15.533Z,1.40
2023-01-29T09:31:44.930Z,1.40
2023-01-29T09:34:14.734Z,1.50
2023-01-29T09:36:43.915Z,1.50
2023-01-29T09:39:17.357Z,1.50
2023-01-29T09:41:55.444Z,1.60
2023-01-29T09:44:35.502Z,1.50
2023-01-29T09:47:09.688Z,1.50
2023-01-29T09:49:43.158Z,1.60
2023-01-29T09:52:20.250Z,1.60
2023-01-29T09:54:59.339Z,1.70
2023-01-29T09:57:35.201Z,1.70
2023-01-29T10:00:04.375Z,1.70
2023-01-29T10:02:56.765Z,1.80
2023-01-29T10:05:52.350Z,1.70
2023-01-29T10:08:42.616Z,1.70
2023-01-29T10:11:26.997Z,1.80
2023-01-29T10:14:11.347Z,2.00
2023-01-29T10:16:55.471Z,1.90
2023-01-29T10:19:55.864Z,1.90
2023-01-29T10:22:41.055Z,1.90
2023-01-29T10:25:16.073Z,1.80
2023-01-29T10:27:51.465Z,2.00
2023-01-29T10:30:29.715Z,1.70
2023-01-29T10:33:01.633Z,1.80
2023-01-29T10:35:35.563Z,1.80
2023-01-29T10:38:22.450Z,1.90
2023-01-29T10:41:00.643Z,1.90
2023-01-29T10:43:44.304Z,1.90
2023-01-29T10:46:25.349Z,1.90
2023-01-29T10:49:08.187Z,2.20
2023-01-29T10:51:56.695Z,2.30
2023-01-29T10:54:50.087Z,2.40
2023-01-29T10:57:30.731Z,2.50
2023-01-29T11:00:13.795Z,2.30
2023-01-29T11:02:48.639Z,2.50
2023-01-29T11:05:25.363Z,2.80
2023-01-29T11:08:04.854Z,2.50
2023-01-29T11:10:42.165Z,2.60
2023-01-29T11:13:17.511Z,2.70
2023-01-29T11:15:50.540Z,2.70
2023-01-29T11:18:19.630Z,2.80
2023-01-29T11:21:01.471Z,2.80
2023-01-29T11:23:33.744Z,2.70
2023-01-29T11:26:07.416Z,2.80
2023-01-29T11:28:41.839Z,2.80
2023-01-29T11:31:34.248Z,2.80
2023-01-29T11:34:08.245Z,2.70
2023-01-29T11:36:40.842Z,2.60
2023-01-29T11:39:21.776Z,2.40
2023-01-29T11:41:57.719Z,2.20
2023-01-29T11:44:33.238Z,2.40
2023-01-29T11:47:16.077Z,2.20
2023-01-29T11:49:49.581Z,2.20
2023-01-29T11:52:21.872Z,2.10
2023-01-29T11:54:55.420Z,2.20
2023-01-29T11:57:34.401Z,2.30
2023-01-29T12:00:07.478Z,2.50
2023-01-29T12:02:41.568Z,2.50
2023-01-29T12:05:18.486Z,2.40
2023-01-29T12:07:51.902Z,2.40
2023-01-29T12:10:35.793Z,2.50
2023-01-29T12:13:20.321Z,2.50
2023-01-29T12:16:06.804Z,2.30
2023-01-29T12:18:41.741Z,2.30
2023-01-29T12:21:20.189Z,2.30
2023-01-29T12:23:57.830Z,2.00
2023-01-29T12:26:34.287Z,2.30
2023-01-29T12:29:27.772Z,2.30
2023-01-29T12:32:08.526Z,2.40
2023-01-29T12:34:50.364Z,2.30
2023-01-29T12:37:25.332Z,2.30
2023-01-29T12:39:54.973Z,2.30
2023-01-29T12:42:25.873Z,2.40
2023-01-29T12:45:00.330Z,2.30
2023-01-29T12:47:34.609Z,2.30
2023-01-29T12:50:09.917Z,2.40
2023-01-29T12:52:47.518Z,2.30
2023-01-29T12:55:21.248Z,2.30
2023-01-29T12:57:58.622Z,2.20
2023-01-29T13:00:31.644Z,2.30
2023-01-29T13:03:06.493Z,2.20
2023-01-29T13:05:44.290Z,2.10
2023-01-29T13:08:21.213Z,2.00
2023-01-29T13:10:53.808Z,2.10
2023-01-29T13:13:30.509Z,2.10
2023-01-29T13:16:01.652Z,2.10
2023-01-29T13:18:42.730Z,2.00
2023-01-29T13:21:19.721Z,2.00
2023-01-29T13:23:53.857Z,2.00
2023-01-29T13:26:25.142Z,1.80
2023-01-29T13:28:55.416Z,1.90
2023-01-29T13:31:32.380Z,1.90
2023-01-29T13:34:16.714Z,2.00
2023-01-29T13:36:51.187Z,2.10
2023-01-29T13:39:27.060Z,2.10
2023-01-29T13:41:58.940Z,2.00
2023-01-29T13:44:30.501Z,1.90
2023-01-29T13:47:02.340Z,1.90
2023-01-29T13:49:40.539Z,2.00
2023-01-29T13:52:31.450Z,2.00
2023-01-29T13:55:04.768Z,2.10
2023-01-29T13:57:56.302Z,2.10
2023-01-29T14:00:59.391Z,2.10
2023-01-29T14:04:04.527Z,2.10
2023-01-29T14:06:53.072Z,2.10
2023-01-29T14:10:04.326Z,2.10
2023-01-29T14:12:47.671Z,2.00
2023-01-29T14:15:40.018Z,2.00
2023-01-29T14:18:19.800Z,2.10
2023-01-29T14:21:22.432Z,1.90
2023-01-29T14:23:56.511Z,1.80
2023-01-29T14:26:34.527Z,1.90
2023-01-29T14:29:33.536Z,1.80
2023-01-29T14:32:17.577Z,1.90
2023-01-29T14:34:50.797Z,1.90
2023-01-29T14:37:28.232Z,2.00
2023-01-29T14:40:19.156Z,1.90
2023-01-29T14:42:58.488Z,1.80
2023-01-29T14:45:32.261Z,1.80
2023-01-29T14:48:13.451Z,1.90
2023-01-29T14:50:59.746Z,1.70
2023-01-29T14:53:48.937Z,1.70
2023-01-29T14:56:25.140Z,1.70
2023-01-29T14:59:01.634Z,1.80
2023-01-29T15:01:37.284Z,1.70
2023-01-29T15:04:09.893Z,1.80
2023-01-29T15:06:47.274Z,1.80
2023-01-29T15:09:19.588Z,1.80
2023-01-29T15:11:54.287Z,1.70
2023-01-29T15:14:31.757Z,1.70
2023-01-29T15:17:24.811Z,1.70
2023-01-29T15:19:55.737Z,1.70
2023-01-29T15:22:29.532Z,1.70
2023-01-29T15:25:08.986Z,1.70
2023-01-29T15:27:38.453Z,1.60
2023-01-29T15:30:09.787Z,1.70
2023-01-29T15:32:43.391Z,1.60
2023-01-29T15:35:30.535Z,1.80
2023-01-29T15:38:05.647Z,1.70
2023-01-29T15:40:36.293Z,1.70
2023-01-29T15:43:25.424Z,1.80
2023-01-29T15:45:58.321Z,1.70
2023-01-29T15:48:37.747Z,1.70
2023-01-29T15:51:10.369Z,1.80
2023-01-29T15:53:45.435Z,1.80
2023-01-29T15:56:21.021Z,1.80
2023-01-29T15:58:53.504Z,1.80
2023-01-29T16:01:24.268Z,1.90
2023-01-29T16:03:59.288Z,1.90
2023-01-29T16:06:29.956Z,1.90
2023-01-29T16:09:00.813Z,1.90
2023-01-29T16:11:31.481Z,1.90
2023-01-29T16:14:03.313Z,1.90
2023-01-29T16:16:34.359Z,1.90
2023-01-29T16:19:23.314Z,1.80
2023-01-29T16:22:00.572Z,1.90
2023-01-29T16:24:33.025Z,1.80
2023-01-29T16:27:13.745Z,1.70
2023-01-29T16:29:47.875Z,1.70
2023-01-29T16:32:18.624Z,1.80
2023-01-29T16:34:53.785Z,1.80
2023-01-29T16:37:28.361Z,1.80
2023-01-29T16:40:01.709Z,1.70
2023-01-29T16:42:33.430Z,1.80
2023-01-29T16:45:08.139Z,1.80
2023-01-29T16:47:39.997Z,1.90
2023-01-29T16:50:54.030Z,1.90
2023-01-29T16:53:28.462Z,1.90
2023-01-29T16:56:06.949Z,2.00
2023-01-29T16:58:40.180Z,1.90
2023-01-29T17:01:16.426Z,1.90
2023-01-29T17:03:50.779Z,1.80
2023-01-29T17:06:28.137Z,1.80
2023-01-29T17:08:58.261Z,1.80
2023-01-29T17:11:39.045Z,1.80
2023-01-29T17:14:11.863Z,1.90
2023-01-29T17:16:53.746Z,1.80
2023-01-29T17:19:26.139Z,1.80
2023-01-29T17:21:59.774Z,1.90
2023-01-29T17:24:33.029Z,1.80
2023-01-29T17:27:08.715Z,1.70
2023-01-29T17:29:42.126Z,1.70
2023-01-29T17:32:14.260Z,1.70
2023-01-29T17:34:45.354Z,1.70
2023-01-29T17:37:19.218Z,1.80
2023-01-29T17:40:04.281Z,1.80
2023-01-29T17:42:36.612Z,1.70
2023-01-29T17:45:10.061Z,1.70
2023-01-29T17:47:41.299Z,1.70
2023-01-29T17:50:23.833Z,1.60
2023-01-29T17:52:55.721Z,1.70
2023-01-29T17:55:29.081Z,1.70
2023-01-29T17:57:59.733Z,1.70
2023-01-29T18:00:29.348Z,1.80
2023-01-29T18:03:03.248Z,1.60
2023-01-29T18:05:34.115Z,1.80
2023-01-29T18:08:05.985Z,1.90
2023-01-29T18:10:37.124Z,1.80
2023-01-29T18:13:12.659Z,1.80
2023-01-29T18:15:43.556Z,1.80
2023-01-29T18:18:16.121Z,1.80
2023-01-29T18:20:49.958Z,1.80
2023-01-29T18:23:23.846Z,1.80
2023-01-29T18:25:58.721Z,1.90
2023-01-29T18:28:32.744Z,1.90
2023-01-29T18:31:05.097Z,2.00
2023-01-29T18:33:37.326Z,1.90
2023-01-29T18:36:08.858Z,1.90
2023-01-29T18:38:43.306Z,1.90
2023-01-29T18:41:14.827Z,1.90
2023-01-29T18:43:46.903Z,2.00
2023-01-29T18:46:18.962Z,1.90
2023-01-29T18:48:50.050Z,1.90
2023-01-29T18:51:21.651Z,1.90
2023-01-29T18:53:57.510Z,1.90
2023-01-29T18:56:29.728Z,1.90
2023-01-29T18:59:01.141Z,1.80
2023-01-29T19:01:33.401Z,1.80
2023-01-29T19:04:06.883Z,1.70
2023-01-29T19:06:40.944Z,1.70
2023-01-29T19:09:15.260Z,1.80
2023-01-29T19:11:47.380Z,1.80
2023-01-29T19:14:21.729Z,1.70
2023-01-29T19:16:59.984Z,1.70
2023-01-29T19:19:31.212Z,1.80
2023-01-29T19:22:02.326Z,1.70
2023-01-29T19:24:39.762Z,1.70
2023-01-29T19:27:12.549Z,1.70
2023-01-29T19:29:45.193Z,1.70
2023-01-29T19:32:16.385Z,1.60
2023-01-29T19:34:51.408Z,1.70
2023-01-29T19:37:25.337Z,1.70
2023-01-29T19:39:59.273Z,1.80
2023-01-29T19:42:30.682Z,1.80
2023-01-29T19:45:04.928Z,1.80
2023-01-29T19:47:36.684Z,1.70
2023-01-29T19:50:13.394Z,1.80
2023-01-29T19:52:51.533Z,1.80
2023-01-29T19:55:26.360Z,1.80
2023-01-29T19:58:01.980Z,1.80
2023-01-29T20:00:32.459Z,1.80
2023-01-29T20:03:04.734Z,1.80
2023-01-29T20:05:38.733Z,1.80
2023-01-29T20:08:15.839Z,1.80
2023-01-29T20:10:56.410Z,1.80
2023-01-29T20:13:35.752Z,1.80
2023-01-29T20:16:08.800Z,1.90
2023-01-29T20:18:39.634Z,1.80
2023-01-29T20:21:12.232Z,1.90
2023-01-29T20:23:45.652Z,1.90
2023-01-29T20:26:19.953Z,1.80
2023-01-29T20:28:51.499Z,1.90
2023-01-29T20:31:23.766Z,1.90
2023-01-29T20:33:54.386Z,1.90
2023-01-29T20:36:27.203Z,1.90
2023-01-29T20:38:58.299Z,1.90
2023-01-29T20:41:31.918Z,1.90
2023-01-29T20:44:03.948Z,1.80
2023-01-29T20:46:36.696Z,1.90
2023-01-29T20:49:18.045Z,1.80
2023-01-29T20:51:48.940Z,1.90
2023-01-29T20:54:23.511Z,1.90
2023-01-29T20:56:57.613Z,1.80
2023-01-29T20:59:29.843Z,1.90
2023-01-29T21:02:06.482Z,1.90
2023-01-29T21:04:38.467Z,1.90
2023-01-29T21:07:16.119Z,1.80
2023-01-29T21:09:47.038Z,1.90
2023-01-29T21:12:25.618Z,1.90
2023-01-29T21:14:58.565Z,1.80
2023-01-29T21:17:29.871Z,1.80
2023-01-29T21:20:01.215Z,1.90
2023-01-29T21:22:32.085Z,1.80
2023-01-29T21:25:02.106Z,1.80
2023-01-29T21:27:37.225Z,1.80
2023-01-29T21:30:08.773Z,1.80
2023-01-29T21:32:38.829Z,1.90
2023-01-29T21:35:09.589Z,1.90
2023-01-29T21:37:39.652Z,1.90
2023-01-29T21:40:13.221Z,1.80
2023-01-29T21:43:01.291Z,1.90
2023-01-29T21:45:31.047Z,1.80
2023-01-29T21:48:00.619Z,1.90
2023-01-29T21:50:29.916Z,1.70
2023-01-29T21:53:01.800Z,1.70
2023-01-29T21:55:32.827Z,1.80
2023-01-29T21:58:04.806Z,1.80
2023-01-29T22:00:34.822Z,1.80
2023-01-29T22:03:04.556Z,1.80
2023-01-29T22:05:33.817Z,1.80
2023-01-29T22:08:05.163Z,1.70
2023-01-29T22:10:36.814Z,1.70
2023-01-29T22:13:07.530Z,1.80
2023-01-29T22:15:36.738Z,1.70
2023-01-29T22:18:06.814Z,1.80
2023-01-29T22:20:37.452Z,1.80
2023-01-29T22:23:06.772Z,1.70
2023-01-29T22:25:36.125Z,1.80
2023-01-29T22:28:07.521Z,1.80
2023-01-29T22:30:36.799Z,1.70
2023-01-29T22:33:06.882Z,1.80
2023-01-29T22:35:36.712Z,1.60
2023-01-29T22:38:07.208Z,1.70
2023-01-29T22:40:36.300Z,1.80
2023-01-29T22:43:07.476Z,1.80
2023-01-29T22:45:40.458Z,1.70
2023-01-29T22:48:09.667Z,1.80
2023-01-29T22:50:40.009Z,1.80
2023-01-29T22:53:09.776Z,1.90
2023-01-29T22:55:38.977Z,1.80
2023-01-29T22:58:10.284Z,1.90
2023-01-29T23:00:41.455Z,1.80
2023-01-29T23:03:10.603Z,1.80
2023-01-29T23:05:40.088Z,1.80
2023-01-29T23:08:09.362Z,1.80
2023-01-29T23:10:39.024Z,1.80
2023-01-29T23:13:09.827Z,1.70
2023-01-29T23:15:40.092Z,1.80
2023-01-29T23:18:10.719Z,1.70
2023-01-29T23:20:42.533Z,1.70
2023-01-29T23:23:12.629Z,1.80
2023-01-29T23:25:58.930Z,1.80
2023-01-29T23:28:29.649Z,1.80
2023-01-29T23:30:58.876Z,1.90
2023-01-29T23:33:28.613Z,1.80
2023-01-29T23:35:57.857Z,1.90
2023-01-29T23:38:28.718Z,1.80
2023-01-29T23:40:58.515Z,1.70
2023-01-29T23:43:29.971Z,1.80
2023-01-29T23:45:59.482Z,1.80
2023-01-29T23:48:28.806Z,1.70
2023-01-29T23:50:59.015Z,1.60
2023-01-29T23:53:28.433Z,1.60
2023-01-29T23:56:02.611Z,1.70
2023-01-29T23:58:35.079Z,1.70
